createdAt,value
2016-09-14T00:00:29.211Z,20.02
2016-09-14T00:01:29.215Z,19.97
2016-09-14T00:02:29.213Z,19.95
2016-09-14T00:03:29.313Z,19.97
2016-09-14T00:04:29.189Z,19.95
2016-09-14T00:05:29.179Z,19.94
2016-09-14T00:06:29.199Z,20.03
2016-09-14T00:07:29.222Z,19.88
2016-09-14T00:08:29.194Z,19.88
2016-09-14T00:09:29.202Z,19.88
2016-09-14T00:10:29.251Z,19.94
2016-09-14T00:11:29.208Z,19.87
2016-09-14T00:12:29.220Z,19.86
2016-09-14T00:13:29.217Z,19.91
2016-09-14T00:14:29.203Z,19.86
2016-09-14T00:15:29.227Z,19.83
2016-09-14T00:16:29.225Z,19.78
2016-09-14T00:17:29.202Z,19.86
2016-09-14T00:18:29.198Z,19.73
2016-09-14T00:19:29.199Z,19.75
2016-09-14T00:20:29.205Z,19.76
2016-09-14T00:21:29.208Z,19.68
2016-09-14T00:22:29.234Z,19.72
2016-09-14T00:23:29.238Z,19.73
2016-09-14T00:24:29.225Z,19.63
2016-09-14T00:25:29.222Z,19.72
2016-09-14T00:26:29.212Z,19.61
2016-09-14T00:27:29.206Z,19.57
2016-09-14T00:28:29.211Z,19.57
2016-09-14T00:29:30.239Z,19.57
2016-09-14T00:30:29.238Z,19.54
2016-09-14T00:31:29.245Z,19.54
2016-09-14T00:32:29.224Z,19.53
2016-09-14T00:33:29.240Z,19.51
2016-09-14T00:34:29.851Z,19.53
2016-09-14T00:35:29.245Z,19.48
2016-09-14T00:36:29.236Z,19.61
2016-09-14T00:37:30.191Z,19.57
2016-09-14T00:38:30.354Z,19.51
2016-09-14T00:39:29.241Z,19.6
2016-09-14T00:40:29.221Z,19.4
2016-09-14T00:41:29.288Z,19.43
2016-09-14T00:42:29.226Z,19.51
2016-09-14T00:43:29.230Z,19.5
2016-09-14T00:44:29.707Z,19.53
2016-09-14T00:45:29.245Z,19.47
2016-09-14T00:46:29.255Z,19.42
2016-09-14T00:47:29.250Z,19.43
2016-09-14T00:48:29.238Z,19.5
2016-09-14T00:49:29.237Z,19.42
2016-09-14T00:50:29.246Z,19.47
2016-09-14T00:51:29.241Z,19.42
2016-09-14T00:52:29.261Z,19.43
2016-09-14T00:53:29.656Z,19.51
2016-09-14T00:54:29.280Z,19.43
2016-09-14T00:55:29.595Z,19.53
2016-09-14T00:56:29.267Z,19.38
2016-09-14T00:57:29.240Z,19.39
2016-09-14T00:58:29.257Z,19.32
2016-09-14T00:59:29.241Z,19.4
2016-09-14T01:00:29.255Z,19.29
2016-09-14T01:01:29.256Z,19.32
2016-09-14T01:02:29.252Z,19.17
2016-09-14T01:03:29.665Z,19.14
2016-09-14T01:04:29.271Z,19.11
2016-09-14T01:05:29.253Z,19.11
2016-09-14T01:06:29.528Z,19.06
2016-09-14T01:07:29.289Z,18.92
2016-09-14T01:08:29.628Z,19.01
2016-09-14T01:09:29.239Z,18.91
2016-09-14T01:10:29.259Z,18.9
2016-09-14T01:11:29.241Z,18.82
2016-09-14T01:12:29.246Z,18.79
2016-09-14T01:13:29.265Z,18.83
2016-09-14T01:14:29.301Z,18.83
2016-09-14T01:15:29.265Z,18.72
2016-09-14T01:16:29.257Z,18.73
2016-09-14T01:17:29.255Z,18.64
2016-09-14T01:18:29.576Z,18.67
2016-09-14T01:19:29.289Z,18.64
2016-09-14T01:20:29.261Z,18.62
2016-09-14T01:21:29.264Z,18.65
2016-09-14T01:22:29.256Z,18.57
2016-09-14T01:23:29.265Z,18.58
2016-09-14T01:24:29.254Z,18.52
2016-09-14T01:25:29.288Z,18.55
2016-09-14T01:26:29.298Z,18.52
2016-09-14T01:27:29.265Z,18.61
2016-09-14T01:28:29.271Z,18.47
2016-09-14T01:29:29.285Z,18.42
2016-09-14T01:30:29.265Z,18.5
2016-09-14T01:31:29.278Z,18.36
2016-09-14T01:32:29.269Z,18.43
2016-09-14T01:33:29.282Z,18.36
2016-09-14T01:34:29.272Z,18.39
2016-09-14T01:35:29.286Z,18.39
2016-09-14T01:36:29.285Z,18.24
2016-09-14T01:37:29.272Z,18.27
2016-09-14T01:38:29.282Z,18.24
2016-09-14T01:39:29.341Z,18.37
2016-09-14T01:40:29.282Z,18.27
2016-09-14T01:41:29.302Z,18.19
2016-09-14T01:42:29.781Z,18.21
2016-09-14T01:43:29.788Z,18.24
2016-09-14T01:44:29.618Z,18.25
2016-09-14T01:45:29.637Z,18.18
2016-09-14T01:46:29.836Z,18.24
2016-09-14T01:47:29.812Z,18.18
2016-09-14T01:48:29.679Z,18.18
2016-09-14T01:49:29.289Z,18.17
2016-09-14T01:50:29.801Z,18.22
2016-09-14T01:51:29.314Z,18.17
2016-09-14T01:52:29.301Z,18.21
2016-09-14T01:53:29.301Z,18.12
2016-09-14T01:54:29.353Z,18.09
2016-09-14T01:55:29.688Z,18.18
2016-09-14T01:56:29.306Z,18.13
2016-09-14T01:57:29.471Z,18.1
2016-09-14T01:58:29.314Z,18.03
2016-09-14T01:59:29.319Z,18.06
2016-09-14T02:00:29.305Z,18.07
2016-09-14T02:01:29.303Z,18.09
2016-09-14T02:02:29.313Z,18
2016-09-14T02:03:29.314Z,18.04
2016-09-14T02:04:29.311Z,18
2016-09-14T02:05:29.342Z,17.99
2016-09-14T02:06:29.407Z,17.89
2016-09-14T02:07:29.314Z,17.91
2016-09-14T02:08:29.291Z,17.91
2016-09-14T02:09:29.312Z,17.87
2016-09-14T02:10:29.304Z,17.84
2016-09-14T02:11:29.562Z,17.85
2016-09-14T02:12:29.323Z,17.82
2016-09-14T02:13:29.315Z,17.78
2016-09-14T02:14:30.153Z,17.84
2016-09-14T02:15:29.716Z,17.82
2016-09-14T02:16:29.776Z,17.88
2016-09-14T02:17:29.317Z,17.78
2016-09-14T02:18:29.402Z,17.81
2016-09-14T02:19:29.323Z,17.79
2016-09-14T02:20:29.346Z,17.76
2016-09-14T02:21:29.316Z,17.82
2016-09-14T02:22:30.277Z,17.73
2016-09-14T02:23:29.333Z,17.76
2016-09-14T02:24:29.350Z,17.76
2016-09-14T02:25:29.348Z,17.73
2016-09-14T02:26:29.451Z,17.78
2016-09-14T02:27:29.411Z,17.78
2016-09-14T02:28:29.359Z,17.73
2016-09-14T02:29:29.345Z,17.71
2016-09-14T02:30:29.348Z,17.76
2016-09-14T02:31:29.340Z,17.74
2016-09-14T02:32:29.352Z,17.79
2016-09-14T02:33:29.346Z,17.88
2016-09-14T02:34:29.339Z,17.73
2016-09-14T02:35:29.346Z,17.79
2016-09-14T02:36:29.349Z,17.88
2016-09-14T02:37:29.428Z,17.74
2016-09-14T02:38:29.330Z,17.79
2016-09-14T02:39:29.352Z,17.81
2016-09-14T02:40:29.351Z,17.84
2016-09-14T02:41:29.351Z,17.81
2016-09-14T02:42:29.341Z,17.79
2016-09-14T02:43:29.356Z,17.76
2016-09-14T02:44:29.363Z,17.7
2016-09-14T02:45:29.419Z,17.81
2016-09-14T02:46:29.357Z,17.73
2016-09-14T02:47:29.348Z,17.87
2016-09-14T02:48:29.349Z,17.74
2016-09-14T02:49:29.342Z,17.74
2016-09-14T02:50:29.367Z,17.7
2016-09-14T02:51:29.360Z,17.69
2016-09-14T02:52:29.362Z,17.74
2016-09-14T02:53:29.368Z,17.66
2016-09-14T02:54:29.385Z,17.71
2016-09-14T02:55:29.351Z,17.7
2016-09-14T02:56:29.368Z,17.59
2016-09-14T02:57:29.362Z,17.64
2016-09-14T02:58:29.875Z,17.66
2016-09-14T02:59:29.351Z,17.62
2016-09-14T03:00:29.355Z,17.59
2016-09-14T03:01:29.348Z,17.67
2016-09-14T03:02:29.348Z,17.55
2016-09-14T03:03:29.342Z,17.62
2016-09-14T03:04:30.011Z,17.63
2016-09-14T03:05:29.352Z,17.57
2016-09-14T03:06:29.361Z,17.63
2016-09-14T03:07:30.318Z,17.51
2016-09-14T03:08:29.377Z,17.59
2016-09-14T03:09:29.587Z,17.51
2016-09-14T03:10:29.456Z,17.53
2016-09-14T03:11:29.370Z,17.44
2016-09-14T03:12:29.376Z,17.54
2016-09-14T03:13:29.398Z,17.43
2016-09-14T03:14:29.371Z,17.41
2016-09-14T03:15:29.364Z,17.47
2016-09-14T03:16:29.357Z,17.46
2016-09-14T03:17:30.152Z,17.51
2016-09-14T03:18:30.426Z,17.48
2016-09-14T03:19:29.371Z,17.51
2016-09-14T03:20:29.367Z,17.5
2016-09-14T03:21:29.405Z,17.48
2016-09-14T03:22:29.376Z,17.44
2016-09-14T03:23:29.370Z,17.47
2016-09-14T03:24:29.393Z,17.4
2016-09-14T03:25:29.369Z,17.5
2016-09-14T03:26:29.376Z,17.5
2016-09-14T03:27:29.436Z,17.53
2016-09-14T03:28:29.787Z,17.35
2016-09-14T03:29:29.404Z,17.5
2016-09-14T03:30:29.389Z,17.44
2016-09-14T03:31:30.644Z,17.46
2016-09-14T03:32:29.742Z,17.48
2016-09-14T03:33:30.084Z,17.46
2016-09-14T03:34:29.464Z,17.46
2016-09-14T03:35:29.397Z,17.41
2016-09-14T03:36:29.444Z,17.41
2016-09-14T03:37:29.408Z,17.41
2016-09-14T03:38:30.425Z,17.54
2016-09-14T03:39:29.624Z,17.57
2016-09-14T03:40:29.386Z,17.44
2016-09-14T03:41:29.815Z,17.51
2016-09-14T03:42:29.392Z,17.38
2016-09-14T03:43:29.702Z,17.44
2016-09-14T03:44:30.282Z,17.5
2016-09-14T03:45:30.506Z,17.47
2016-09-14T03:46:29.931Z,17.38
2016-09-14T03:47:29.408Z,17.43
2016-09-14T03:48:30.365Z,17.38
2016-09-14T03:49:29.424Z,17.36
2016-09-14T03:50:29.403Z,17.44
2016-09-14T03:51:29.412Z,17.35
2016-09-14T03:52:29.399Z,17.32
2016-09-14T03:53:29.622Z,17.32
2016-09-14T03:54:29.440Z,17.32
2016-09-14T03:55:30.264Z,17.32
2016-09-14T03:56:29.393Z,17.4
2016-09-14T03:57:29.414Z,17.29
2016-09-14T03:58:29.407Z,17.4
2016-09-14T03:59:29.436Z,17.25
2016-09-14T04:00:29.423Z,17.32
2016-09-14T04:01:29.403Z,17.32
2016-09-14T04:02:29.393Z,17.33
2016-09-14T04:03:29.415Z,17.43
2016-09-14T04:04:29.408Z,17.36
2016-09-14T04:05:29.408Z,17.32
2016-09-14T04:06:29.488Z,17.44
2016-09-14T04:07:30.334Z,17.33
2016-09-14T04:08:29.415Z,17.32
2016-09-14T04:09:29.405Z,17.3
2016-09-14T04:10:29.411Z,17.33
2016-09-14T04:11:29.404Z,17.29
2016-09-14T04:12:29.436Z,17.25
2016-09-14T04:13:29.420Z,17.33
2016-09-14T04:14:29.426Z,17.14
2016-09-14T04:15:29.414Z,17.26
2016-09-14T04:16:29.454Z,17.26
2016-09-14T04:17:29.436Z,17.2
2016-09-14T04:18:29.435Z,17.14
2016-09-14T04:19:29.443Z,17.2
2016-09-14T04:20:29.434Z,17.14
2016-09-14T04:21:29.436Z,17.23
2016-09-14T04:22:29.479Z,17.1
2016-09-14T04:23:29.437Z,17.18
2016-09-14T04:24:29.461Z,17.1
2016-09-14T04:25:29.433Z,17.04
2016-09-14T04:26:29.421Z,17.07
2016-09-14T04:27:29.422Z,17.18
2016-09-14T04:28:29.444Z,17.1
2016-09-14T04:29:29.440Z,17.04
2016-09-14T04:30:29.446Z,17.06
2016-09-14T04:31:29.440Z,17.04
2016-09-14T04:32:29.441Z,16.98
2016-09-14T04:33:29.447Z,17.08
2016-09-14T04:34:29.456Z,17
2016-09-14T04:35:29.432Z,17.06
2016-09-14T04:36:29.439Z,16.99
2016-09-14T04:37:29.449Z,17
2016-09-14T04:38:29.444Z,16.95
2016-09-14T04:39:29.451Z,17.06
2016-09-14T04:40:29.479Z,16.99
2016-09-14T04:41:29.485Z,16.9
2016-09-14T04:42:29.447Z,16.89
2016-09-14T04:43:29.446Z,16.9
2016-09-14T04:44:29.462Z,16.93
2016-09-14T04:45:29.480Z,17.03
2016-09-14T04:46:29.458Z,16.93
2016-09-14T04:47:29.459Z,16.99
2016-09-14T04:48:29.463Z,16.99
2016-09-14T04:49:29.467Z,16.96
2016-09-14T04:50:29.442Z,16.92
2016-09-14T04:51:29.464Z,16.98
2016-09-14T04:52:29.460Z,16.93
2016-09-14T04:53:29.466Z,16.92
2016-09-14T04:54:29.497Z,16.86
2016-09-14T04:55:29.465Z,16.88
2016-09-14T04:56:29.592Z,16.98
2016-09-14T04:57:29.498Z,16.95
2016-09-14T04:58:29.463Z,16.93
2016-09-14T04:59:29.474Z,16.92
2016-09-14T05:00:29.506Z,17
2016-09-14T05:01:29.483Z,16.92
2016-09-14T05:02:29.475Z,16.93
2016-09-14T05:03:29.517Z,16.89
2016-09-14T05:04:29.546Z,16.89
2016-09-14T05:05:29.490Z,16.92
2016-09-14T05:06:29.472Z,16.99
2016-09-14T05:07:29.485Z,16.88
2016-09-14T05:08:29.537Z,16.96
2016-09-14T05:09:29.511Z,16.92
2016-09-14T05:10:29.530Z,16.95
2016-09-14T05:11:29.520Z,16.92
2016-09-14T05:12:29.549Z,16.96
2016-09-14T05:13:29.540Z,16.95
2016-09-14T05:14:29.534Z,17.03
2016-09-14T05:15:29.509Z,17.04
2016-09-14T05:16:29.528Z,17.03
2016-09-14T05:17:29.520Z,17.06
2016-09-14T05:18:29.490Z,16.95
2016-09-14T05:19:29.495Z,17
2016-09-14T05:20:29.524Z,17
2016-09-14T05:21:29.513Z,16.9
2016-09-14T05:22:29.495Z,16.9
2016-09-14T05:23:29.489Z,17
2016-09-14T05:24:29.506Z,17.08
2016-09-14T05:25:29.483Z,16.98
2016-09-14T05:26:29.482Z,17.13
2016-09-14T05:27:29.485Z,17.08
2016-09-14T05:28:29.522Z,17
2016-09-14T05:29:29.536Z,17.08
2016-09-14T05:30:29.505Z,16.99
2016-09-14T05:31:29.539Z,16.96
2016-09-14T05:32:30.001Z,17.14
2016-09-14T05:33:29.505Z,17.08
2016-09-14T05:34:29.912Z,17.04
2016-09-14T05:35:31.345Z,17.1
2016-09-14T05:36:30.029Z,16.96
2016-09-14T05:37:30.531Z,17.15
2016-09-14T05:38:29.815Z,17.08
2016-09-14T05:39:30.783Z,17.11
2016-09-14T05:40:29.506Z,17.15
2016-09-14T05:41:29.536Z,17.14
2016-09-14T05:42:29.502Z,17.11
2016-09-14T05:43:30.877Z,17.11
2016-09-14T05:44:29.516Z,17.22
2016-09-14T05:45:29.514Z,17.35
2016-09-14T05:46:29.520Z,17.22
2016-09-14T05:47:30.380Z,17.26
2016-09-14T05:48:29.520Z,17.23
2016-09-14T05:49:29.534Z,17.22
2016-09-14T05:50:29.521Z,17.35
2016-09-14T05:51:29.544Z,17.38
2016-09-14T05:52:29.525Z,17.3
2016-09-14T05:53:29.502Z,17.33
2016-09-14T05:54:29.552Z,17.36
2016-09-14T05:55:29.530Z,17.44
2016-09-14T05:56:29.524Z,17.41
2016-09-14T05:57:29.517Z,17.51
2016-09-14T05:58:29.521Z,17.53
2016-09-14T05:59:29.525Z,17.48
2016-09-14T06:00:29.530Z,17.53
2016-09-14T06:01:29.511Z,17.59
2016-09-14T06:02:29.548Z,17.55
2016-09-14T06:03:29.510Z,17.59
2016-09-14T06:04:29.530Z,17.63
2016-09-14T06:05:29.521Z,17.69
2016-09-14T06:06:29.543Z,17.69
2016-09-14T06:07:29.558Z,17.74
2016-09-14T06:08:29.531Z,17.74
2016-09-14T06:09:29.562Z,17.82
2016-09-14T06:10:29.538Z,17.87
2016-09-14T06:11:29.576Z,17.84
2016-09-14T06:12:29.537Z,17.88
2016-09-14T06:13:29.562Z,17.92
2016-09-14T06:14:29.530Z,18
2016-09-14T06:15:29.572Z,18.03
2016-09-14T06:16:29.552Z,18.04
2016-09-14T06:17:29.530Z,18.18
2016-09-14T06:18:29.550Z,18.22
2016-09-14T06:19:29.534Z,18.33
2016-09-14T06:20:29.542Z,18.29
2016-09-14T06:21:29.536Z,18.37
2016-09-14T06:22:29.540Z,18.55
2016-09-14T06:23:29.530Z,18.52
2016-09-14T06:24:29.557Z,18.68
2016-09-14T06:25:29.535Z,18.68
2016-09-14T06:26:29.548Z,18.67
2016-09-14T06:27:29.566Z,18.68
2016-09-14T06:28:29.537Z,18.79
2016-09-14T06:29:29.538Z,18.67
2016-09-14T06:30:29.553Z,18.74
2016-09-14T06:31:29.542Z,18.84
2016-09-14T06:32:29.544Z,18.95
2016-09-14T06:33:29.542Z,18.84
2016-09-14T06:34:29.561Z,18.99
2016-09-14T06:35:29.549Z,19.08
2016-09-14T06:36:29.560Z,18.99
2016-09-14T06:37:29.557Z,19.1
2016-09-14T06:38:29.566Z,19.14
2016-09-14T06:39:29.572Z,19.05
2016-09-14T06:40:29.566Z,19.32
2016-09-14T06:41:29.569Z,19.35
2016-09-14T06:42:29.588Z,19.39
2016-09-14T06:43:29.565Z,19.39
2016-09-14T06:44:29.569Z,19.58
2016-09-14T06:45:29.596Z,19.58
2016-09-14T06:46:29.560Z,19.61
2016-09-14T06:47:29.567Z,19.65
2016-09-14T06:48:29.575Z,19.8
2016-09-14T06:49:29.579Z,19.86
2016-09-14T06:50:29.591Z,19.91
2016-09-14T06:51:29.580Z,19.91
2016-09-14T06:52:29.568Z,19.93
2016-09-14T06:53:29.609Z,20
2016-09-14T06:54:29.672Z,20.15
2016-09-14T06:55:29.569Z,20.13
2016-09-14T06:56:29.596Z,20.23
2016-09-14T06:57:29.561Z,20.33
2016-09-14T06:58:29.572Z,20.41
2016-09-14T06:59:29.570Z,20.47
2016-09-14T07:00:29.563Z,20.39
2016-09-14T07:01:29.570Z,20.66
2016-09-14T07:02:29.595Z,20.59
2016-09-14T07:03:29.623Z,20.71
2016-09-14T07:04:29.576Z,20.68
2016-09-14T07:05:29.612Z,20.81
2016-09-14T07:06:29.576Z,20.83
2016-09-14T07:07:29.575Z,20.91
2016-09-14T07:08:29.583Z,20.86
2016-09-14T07:09:29.636Z,21.01
2016-09-14T07:10:29.585Z,21.06
2016-09-14T07:11:29.675Z,21.14
2016-09-14T07:12:29.659Z,21.16
2016-09-14T07:13:29.601Z,21.3
2016-09-14T07:14:29.592Z,21.32
2016-09-14T07:15:29.579Z,21.3
2016-09-14T07:16:29.599Z,21.27
2016-09-14T07:17:29.599Z,21.57
2016-09-14T07:18:29.589Z,21.57
2016-09-14T07:19:29.596Z,21.6
2016-09-14T07:20:29.605Z,21.57
2016-09-14T07:21:29.656Z,21.79
2016-09-14T07:22:29.675Z,21.79
2016-09-14T07:23:29.624Z,21.82
2016-09-14T07:24:29.696Z,21.85
2016-09-14T07:25:29.596Z,21.87
2016-09-14T07:26:29.616Z,22.04
2016-09-14T07:27:29.623Z,21.98
2016-09-14T07:28:29.608Z,22.09
2016-09-14T07:29:29.628Z,22.16
2016-09-14T07:30:29.624Z,22.19
2016-09-14T07:31:29.631Z,22.25
2016-09-14T07:32:29.622Z,22.35
2016-09-14T07:33:29.629Z,22.32
2016-09-14T07:34:29.629Z,22.34
2016-09-14T07:35:29.674Z,22.41
2016-09-14T07:36:29.635Z,22.37
2016-09-14T07:37:29.635Z,22.46
2016-09-14T07:38:29.603Z,22.44
2016-09-14T07:39:29.630Z,22.53
2016-09-14T07:40:29.637Z,22.59
2016-09-14T07:41:29.641Z,22.68
2016-09-14T07:42:29.663Z,22.57
2016-09-14T07:43:29.628Z,22.74
2016-09-14T07:44:29.651Z,22.75
2016-09-14T07:45:29.630Z,22.8
2016-09-14T07:46:29.648Z,22.82
2016-09-14T07:47:29.622Z,22.89
2016-09-14T07:48:29.625Z,23.05
2016-09-14T07:49:29.673Z,22.99
2016-09-14T07:50:29.628Z,23.08
2016-09-14T07:51:29.629Z,23.08
2016-09-14T07:52:29.631Z,23.12
2016-09-14T07:53:29.629Z,23.27
2016-09-14T07:54:29.680Z,23.34
2016-09-14T07:55:29.703Z,23.31
2016-09-14T07:56:29.636Z,23.34
2016-09-14T07:57:29.644Z,23.49
2016-09-14T07:58:29.647Z,23.53
2016-09-14T07:59:29.641Z,23.57
2016-09-14T08:00:29.624Z,23.58
2016-09-14T08:01:29.638Z,23.68
2016-09-14T08:02:29.632Z,23.72
2016-09-14T08:03:29.700Z,23.94
2016-09-14T08:04:29.629Z,23.79
2016-09-14T08:05:29.639Z,23.95
2016-09-14T08:06:29.655Z,23.97
2016-09-14T08:07:29.639Z,23.95
2016-09-14T08:08:29.651Z,23.98
2016-09-14T08:09:29.652Z,24.02
2016-09-14T08:10:29.640Z,23.89
2016-09-14T08:11:29.669Z,24.02
2016-09-14T08:12:29.667Z,24.1
2016-09-14T08:13:29.666Z,24.14
2016-09-14T08:14:29.665Z,24.31
2016-09-14T08:15:29.678Z,24.31
2016-09-14T08:16:29.664Z,24.24
2016-09-14T08:17:29.692Z,24.32
2016-09-14T08:18:29.669Z,24.29
2016-09-14T08:19:29.676Z,24.5
2016-09-14T08:20:29.678Z,24.32
2016-09-14T08:21:29.689Z,24.39
2016-09-14T08:22:29.666Z,24.6
2016-09-14T08:23:29.682Z,24.67
2016-09-14T08:24:29.680Z,24.53
2016-09-14T08:25:29.764Z,24.63
2016-09-14T08:26:29.708Z,24.75
2016-09-14T08:27:29.698Z,24.71
2016-09-14T08:28:29.749Z,24.75
2016-09-14T08:29:29.669Z,24.79
2016-09-14T08:30:29.690Z,24.8
2016-09-14T08:31:29.666Z,24.97
2016-09-14T08:32:29.701Z,25.01
2016-09-14T08:33:29.903Z,24.94
2016-09-14T08:34:29.697Z,24.95
2016-09-14T08:35:29.678Z,25.09
2016-09-14T08:36:29.719Z,25.07
2016-09-14T08:37:29.703Z,25.06
2016-09-14T08:38:29.691Z,25.16
2016-09-14T08:39:29.723Z,25.17
2016-09-14T08:40:29.715Z,25.28
2016-09-14T08:41:29.686Z,25.13
2016-09-14T08:42:29.698Z,25.34
2016-09-14T08:43:29.742Z,25.35
2016-09-14T08:44:29.717Z,25.34
2016-09-14T08:45:29.772Z,25.38
2016-09-14T08:46:29.688Z,25.44
2016-09-14T08:47:29.710Z,25.44
2016-09-14T08:48:29.721Z,25.53
2016-09-14T08:49:29.686Z,25.56
2016-09-14T08:50:29.704Z,25.62
2016-09-14T08:51:29.729Z,25.61
2016-09-14T08:52:29.691Z,25.65
2016-09-14T08:53:29.719Z,25.79
2016-09-14T08:54:29.735Z,25.69
2016-09-14T08:55:29.684Z,25.77
2016-09-14T08:56:29.720Z,25.75
2016-09-14T08:57:29.695Z,25.79
2016-09-14T08:58:29.695Z,25.98
2016-09-14T08:59:29.752Z,25.87
2016-09-14T09:00:29.723Z,26.01
2016-09-14T09:01:29.738Z,25.94
2016-09-14T09:02:29.727Z,26.04
2016-09-14T09:03:29.770Z,26.05
2016-09-14T09:04:29.700Z,25.94
2016-09-14T09:05:29.742Z,26.06
2016-09-14T09:06:29.708Z,26.02
2016-09-14T09:07:29.704Z,26.15
2016-09-14T09:08:29.735Z,26.17
2016-09-14T09:09:29.715Z,26.17
2016-09-14T09:10:29.736Z,26.21
2016-09-14T09:11:29.747Z,26.31
2016-09-14T09:12:29.701Z,26.27
2016-09-14T09:13:29.744Z,26.28
2016-09-14T09:14:29.732Z,26.42
2016-09-14T09:15:29.764Z,26.46
2016-09-14T09:16:29.725Z,26.55
2016-09-14T09:17:29.751Z,26.47
2016-09-14T09:18:29.745Z,26.54
2016-09-14T09:19:29.725Z,26.67
2016-09-14T09:20:29.746Z,26.58
2016-09-14T09:21:29.729Z,26.59
2016-09-14T09:22:29.713Z,26.74
2016-09-14T09:23:29.754Z,26.73
2016-09-14T09:24:29.755Z,26.73
2016-09-14T09:25:29.742Z,26.74
2016-09-14T09:26:29.730Z,26.69
2016-09-14T09:27:29.764Z,26.8
2016-09-14T09:28:29.734Z,26.89
2016-09-14T09:29:29.742Z,26.87
2016-09-14T09:30:29.747Z,26.98
2016-09-14T09:31:29.743Z,26.98
2016-09-14T09:32:29.758Z,27.13
2016-09-14T09:33:29.777Z,27.06
2016-09-14T09:34:29.764Z,26.98
2016-09-14T09:35:29.767Z,27.06
2016-09-14T09:36:29.750Z,27.19
2016-09-14T09:37:29.749Z,27.06
2016-09-14T09:38:29.751Z,27.23
2016-09-14T09:39:29.765Z,27.19
2016-09-14T09:40:30.534Z,27.14
2016-09-14T09:41:29.770Z,27.32
2016-09-14T09:42:29.757Z,27.38
2016-09-14T09:43:29.855Z,27.41
2016-09-14T09:44:29.782Z,27.39
2016-09-14T09:45:29.775Z,27.5
2016-09-14T09:46:29.767Z,27.53
2016-09-14T09:47:29.742Z,27.48
2016-09-14T09:48:29.772Z,27.51
2016-09-14T09:49:29.744Z,27.41
2016-09-14T09:50:29.771Z,27.73
2016-09-14T09:51:29.732Z,27.64
2016-09-14T09:52:29.755Z,27.82
2016-09-14T09:53:29.756Z,27.76
2016-09-14T09:54:29.833Z,27.76
2016-09-14T09:55:29.771Z,27.86
2016-09-14T09:56:29.755Z,27.82
2016-09-14T09:57:29.768Z,27.92
2016-09-14T09:58:29.786Z,27.88
2016-09-14T09:59:29.800Z,28.01
2016-09-14T10:00:29.771Z,27.96
2016-09-14T10:01:29.819Z,28.03
2016-09-14T10:02:29.794Z,28.04
2016-09-14T10:03:29.762Z,28.1
2016-09-14T10:04:29.798Z,28.1
2016-09-14T10:05:29.770Z,28.09
2016-09-14T10:06:29.812Z,28.16
2016-09-14T10:07:29.803Z,28.21
2016-09-14T10:08:29.777Z,28.29
2016-09-14T10:09:29.813Z,28.28
2016-09-14T10:10:29.775Z,28.35
2016-09-14T10:11:29.841Z,28.33
2016-09-14T10:12:30.098Z,28.4
2016-09-14T10:13:29.809Z,28.44
2016-09-14T10:14:29.787Z,28.4
2016-09-14T10:15:29.787Z,28.51
2016-09-14T10:16:30.035Z,28.5
2016-09-14T10:17:29.835Z,28.59
2016-09-14T10:18:29.803Z,28.46
2016-09-14T10:19:29.784Z,28.58
2016-09-14T10:20:29.789Z,28.65
2016-09-14T10:21:29.809Z,28.59
2016-09-14T10:22:29.828Z,28.7
2016-09-14T10:23:29.793Z,28.8
2016-09-14T10:24:29.815Z,28.78
2016-09-14T10:25:29.808Z,28.85
2016-09-14T10:26:29.784Z,28.81
2016-09-14T10:27:29.807Z,28.84
2016-09-14T10:28:29.796Z,28.91
2016-09-14T10:29:29.805Z,28.91
2016-09-14T10:30:29.802Z,28.93
2016-09-14T10:31:29.817Z,29.03
2016-09-14T10:32:29.817Z,28.9
2016-09-14T10:33:29.799Z,29.06
2016-09-14T10:34:29.806Z,29.11
2016-09-14T10:35:29.823Z,29.11
2016-09-14T10:36:29.811Z,29.11
2016-09-14T10:37:29.809Z,29.15
2016-09-14T10:38:30.084Z,29.13
2016-09-14T10:39:29.825Z,29.23
2016-09-14T10:40:29.839Z,29.22
2016-09-14T10:41:30.137Z,29.29
2016-09-14T10:42:29.846Z,29.23
2016-09-14T10:43:31.022Z,29.34
2016-09-14T10:44:30.577Z,29.37
2016-09-14T10:45:30.911Z,29.44
2016-09-14T10:46:29.818Z,29.4
2016-09-14T10:47:29.817Z,29.4
2016-09-14T10:48:29.813Z,29.43
2016-09-14T10:49:30.279Z,29.53
2016-09-14T10:50:30.397Z,29.45
2016-09-14T10:51:29.808Z,29.57
2016-09-14T10:52:29.831Z,29.56
2016-09-14T10:53:29.839Z,29.63
2016-09-14T10:54:29.855Z,29.59
2016-09-14T10:55:29.821Z,29.79
2016-09-14T10:56:29.829Z,29.68
2016-09-14T10:57:29.820Z,29.71
2016-09-14T10:58:29.841Z,29.81
2016-09-14T10:59:29.820Z,29.87
2016-09-14T11:00:29.849Z,29.89
2016-09-14T11:01:30.647Z,29.89
2016-09-14T11:02:29.837Z,30
2016-09-14T11:03:29.829Z,29.84
2016-09-14T11:04:30.071Z,30
2016-09-14T11:05:29.844Z,30.08
2016-09-14T11:06:29.833Z,29.92
2016-09-14T11:07:29.870Z,30.05
2016-09-14T11:08:29.868Z,30.07
2016-09-14T11:09:29.838Z,30.02
2016-09-14T11:10:29.863Z,30.18
2016-09-14T11:11:29.856Z,30.16
2016-09-14T11:12:29.884Z,30.12
2016-09-14T11:13:30.225Z,30.14
2016-09-14T11:14:29.844Z,30.18
2016-09-14T11:15:29.851Z,30.18
2016-09-14T11:16:29.849Z,30.27
2016-09-14T11:17:29.875Z,30.26
2016-09-14T11:18:29.852Z,30.24
2016-09-14T11:19:29.882Z,30.27
2016-09-14T11:20:29.873Z,30.36
2016-09-14T11:21:29.860Z,30.33
2016-09-14T11:22:29.856Z,30.38
2016-09-14T11:23:29.846Z,30.43
2016-09-14T11:24:30.536Z,30.46
2016-09-14T11:25:29.859Z,30.43
2016-09-14T11:26:30.027Z,30.5
2016-09-14T11:27:29.851Z,30.47
2016-09-14T11:28:29.857Z,30.53
2016-09-14T11:29:29.860Z,30.62
2016-09-14T11:30:29.874Z,30.61
2016-09-14T11:31:29.881Z,30.56
2016-09-14T11:32:29.863Z,30.68
2016-09-14T11:33:29.884Z,30.67
2016-09-14T11:34:29.917Z,30.61
2016-09-14T11:35:29.877Z,30.68
2016-09-14T11:36:30.480Z,30.68
2016-09-14T11:37:29.907Z,30.78
2016-09-14T11:38:29.888Z,30.75
2016-09-14T11:39:29.894Z,30.75
2016-09-14T11:40:29.901Z,30.71
2016-09-14T11:41:29.895Z,30.81
2016-09-14T11:42:30.029Z,30.81
2016-09-14T11:43:29.899Z,30.89
2016-09-14T11:44:29.875Z,30.62
2016-09-14T11:45:29.901Z,30.71
2016-09-14T11:46:30.240Z,30.84
2016-09-14T11:47:29.920Z,30.83
2016-09-14T11:48:29.910Z,30.89
2016-09-14T11:49:29.943Z,30.84
2016-09-14T11:50:29.888Z,30.96
2016-09-14T11:51:29.901Z,30.93
2016-09-14T11:52:29.914Z,30.81
2016-09-14T11:53:29.901Z,30.87
2016-09-14T11:54:29.934Z,30.99
2016-09-14T11:55:29.955Z,30.87
2016-09-14T11:56:29.937Z,31.01
2016-09-14T11:57:29.910Z,31.02
2016-09-14T11:58:29.880Z,30.99
2016-09-14T11:59:29.903Z,31.08
2016-09-14T12:00:29.915Z,31.12
2016-09-14T12:01:29.904Z,31.08
2016-09-14T12:02:29.898Z,31.05
2016-09-14T12:03:29.917Z,31.13
2016-09-14T12:04:29.896Z,31.13
2016-09-14T12:05:30.425Z,31.09
2016-09-14T12:06:29.896Z,31.17
2016-09-14T12:07:29.913Z,31.17
2016-09-14T12:08:29.992Z,31.13
2016-09-14T12:09:29.906Z,31.09
2016-09-14T12:10:30.565Z,31.13
2016-09-14T12:11:29.922Z,31.12
2016-09-14T12:12:29.924Z,31.13
2016-09-14T12:13:30.033Z,31.2
2016-09-14T12:14:29.925Z,31.3
2016-09-14T12:15:29.943Z,31.24
2016-09-14T12:16:29.934Z,31.18
2016-09-14T12:17:29.976Z,31.12
2016-09-14T12:18:29.974Z,31.23
2016-09-14T12:19:29.909Z,31.27
2016-09-14T12:20:30.091Z,31.28
2016-09-14T12:21:29.953Z,31.26
2016-09-14T12:22:30.568Z,31.24
2016-09-14T12:23:29.950Z,31.27
2016-09-14T12:24:30.270Z,31.24
2016-09-14T12:25:29.933Z,31.27
2016-09-14T12:26:30.016Z,31.39
2016-09-14T12:27:29.989Z,31.28
2016-09-14T12:28:29.922Z,31.3
2016-09-14T12:29:29.951Z,31.36
2016-09-14T12:30:29.973Z,31.33
2016-09-14T12:31:30.673Z,31.43
2016-09-14T12:32:29.957Z,31.38
2016-09-14T12:33:29.954Z,31.35
2016-09-14T12:34:29.942Z,31.31
2016-09-14T12:35:29.946Z,31.35
2016-09-14T12:36:30.524Z,31.31
2016-09-14T12:37:29.946Z,31.24
2016-09-14T12:38:29.956Z,31.26
2016-09-14T12:39:30.012Z,31.43
2016-09-14T12:40:29.950Z,31.38
2016-09-14T12:41:29.951Z,31.49
2016-09-14T12:42:29.935Z,31.39
2016-09-14T12:43:30.144Z,31.38
2016-09-14T12:44:29.970Z,31.39
2016-09-14T12:45:29.976Z,31.38
2016-09-14T12:46:29.950Z,31.33
2016-09-14T12:47:29.967Z,31.36
2016-09-14T12:48:29.947Z,31.28
2016-09-14T12:49:29.960Z,31.39
2016-09-14T12:50:29.974Z,31.45
2016-09-14T12:51:29.975Z,31.38
2016-09-14T12:52:29.975Z,31.38
2016-09-14T12:53:29.977Z,31.45
2016-09-14T12:54:30.020Z,31.55
2016-09-14T12:55:29.964Z,31.58